Aérodrome :
LOGIN :

S'inscrire | Disclaimer

   EN    FR    IT 

 










Légende :    VFR   VFR Marginal   IFR   IFR Intensif   IFR Très Intensif
Visi : 
Plafond : 
>= 8 km
>= 3000ft
5 à 8 km
1000 à 3000 ft
1500m à 5 km
500 à 1000 ft
800 à 1500m
200 à 500 ft
< 800m
< 200 ft
Symboles :   Orages  Brouillard  Fortes neiges  Fortes précipitations  Vent > 20 kt
SIGMETs :   Divers  Orages  Givrage  Turbulence  Onde Orograph.  Cendres Volcan.






- Altitude de l'aérodrome : 200 ft
- Code IATA : TCE


LRTC - Tulcea

DERNIER METAR :
  • 170930Z AUTO 08010KT 9999 BKN015/// OVC018/// 15/11 Q1025

METARs EXPIRÉS :
  • 170900Z AUTO 08011KT 9999 BKN014/// OVC017/// 14/11 Q1025
  • 170830Z AUTO 09010KT 9999 SCT012/// OVC015/// 14/11 Q1025
  • 170800Z AUTO 08010KT 9999 BKN013/// OVC016/// 14/11 Q1025
  • 170730Z AUTO 09011KT 9999 BKN012/// OVC015/// 14/11 Q1025
  • 170700Z AUTO 07009KT 9999 BKN013/// BKN018/// 14/11 Q1025

TAF TAF LRTC
Valide du 17 à 06h jusqu'au 17 à 15h UTC


170500Z 1706/1715 08008KT 9999 BKN015
BECMG 1707/1709 BKN020



MET'MAP, la Météo Aéronautique d'un coup d'oeil ! - Copyright ORBIFLY Décembre 2007 - Disclaimer

ORBIFLY MET'MAP TEAM :

Programmation & Développement : Alexandra Zaïnal
Conception & Développement : Baudouin d'Aumeries
Co-Programmation & Développement : Marc-Olivier Méhu
Soutien technique & logistique : Manuel Goepfert

Contact : metmap@orbifly.com




SOURCES & CREDITS :

   NOAA